sensor_id;sensor_type;location;lat;lon;timestamp;temperature;humidity
68766;DHT22;55756;45.582;11.484;2023-04-07T00:01:05;11.90;44.90
68766;DHT22;55756;45.582;11.484;2023-04-07T00:03:31;11.80;45.30
68766;DHT22;55756;45.582;11.484;2023-04-07T00:05:56;11.70;45.60
68766;DHT22;55756;45.582;11.484;2023-04-07T00:08:22;11.70;45.60
68766;DHT22;55756;45.582;11.484;2023-04-07T00:10:48;11.70;45.60
68766;DHT22;55756;45.582;11.484;2023-04-07T00:13:14;11.70;45.70
68766;DHT22;55756;45.582;11.484;2023-04-07T00:15:39;11.70;45.70
68766;DHT22;55756;45.582;11.484;2023-04-07T00:18:05;11.70;46.00
68766;DHT22;55756;45.582;11.484;2023-04-07T00:20:31;11.70;46.20
68766;DHT22;55756;45.582;11.484;2023-04-07T00:22:56;11.60;46.30
68766;DHT22;55756;45.582;11.484;2023-04-07T00:25:22;11.50;46.50
68766;DHT22;55756;45.582;11.484;2023-04-07T00:27:48;11.50;46.60
68766;DHT22;55756;45.582;11.484;2023-04-07T00:30:14;11.40;46.60
68766;DHT22;55756;45.582;11.484;2023-04-07T00:32:40;11.50;46.50
68766;DHT22;55756;45.582;11.484;2023-04-07T00:35:06;11.50;46.70
68766;DHT22;55756;45.582;11.484;2023-04-07T00:37:32;11.40;46.70
68766;DHT22;55756;45.582;11.484;2023-04-07T00:39:58;11.40;47.00
68766;DHT22;55756;45.582;11.484;2023-04-07T00:42:24;11.40;46.90
68766;DHT22;55756;45.582;11.484;2023-04-07T00:44:49;11.50;47.00
68766;DHT22;55756;45.582;11.484;2023-04-07T00:47:15;11.50;46.90
68766;DHT22;55756;45.582;11.484;2023-04-07T00:49:41;11.40;46.30
68766;DHT22;55756;45.582;11.484;2023-04-07T00:52:08;11.30;46.30
68766;DHT22;55756;45.582;11.484;2023-04-07T00:54:37;11.30;46.30
68766;DHT22;55756;45.582;11.484;2023-04-07T00:57:04;11.30;46.50
68766;DHT22;55756;45.582;11.484;2023-04-07T00:59:29;11.30;46.60
68766;DHT22;55756;45.582;11.484;2023-04-07T01:02:16;11.30;46.60
68766;DHT22;55756;45.582;11.484;2023-04-07T01:10:22;11.30;47.30
68766;DHT22;55756;45.582;11.484;2023-04-07T01:13:22;11.20;47.00
68766;DHT22;55756;45.582;11.484;2023-04-07T01:15:54;11.20;46.80
68766;DHT22;55756;45.582;11.484;2023-04-07T01:18:28;11.10;47.20
68766;DHT22;55756;45.582;11.484;2023-04-07T01:21:00;11.10;47.10
68766;DHT22;55756;45.582;11.484;2023-04-07T01:23:46;11.10;47.20
68766;DHT22;55756;45.582;11.484;2023-04-07T01:26:23;11.10;47.20
68766;DHT22;55756;45.582;11.484;2023-04-07T01:31:16;11.10;47.10
68766;DHT22;55756;45.582;11.484;2023-04-07T01:33:44;11.10;47.10
68766;DHT22;55756;45.582;11.484;2023-04-07T01:36:11;11.10;47.30
68766;DHT22;55756;45.582;11.484;2023-04-07T01:38:38;11.10;47.60
68766;DHT22;55756;45.582;11.484;2023-04-07T01:41:05;11.00;47.60
68766;DHT22;55756;45.582;11.484;2023-04-07T01:43:32;11.10;47.50
68766;DHT22;55756;45.582;11.484;2023-04-07T01:45:58;11.10;47.40
68766;DHT22;55756;45.582;11.484;2023-04-07T01:48:25;11.10;47.60
68766;DHT22;55756;45.582;11.484;2023-04-07T01:50:51;11.10;47.40
68766;DHT22;55756;45.582;11.484;2023-04-07T01:53:18;11.00;47.70
68766;DHT22;55756;45.582;11.484;2023-04-07T01:55:44;11.00;48.00
68766;DHT22;55756;45.582;11.484;2023-04-07T01:58:10;11.00;47.70
68766;DHT22;55756;45.582;11.484;2023-04-07T02:00:40;11.00;48.00
68766;DHT22;55756;45.582;11.484;2023-04-07T02:03:14;11.00;47.70
68766;DHT22;55756;45.582;11.484;2023-04-07T02:05:53;11.10;47.40
68766;DHT22;55756;45.582;11.484;2023-04-07T02:08:26;11.00;47.40
68766;DHT22;55756;45.582;11.484;2023-04-07T02:10:52;10.90;47.70
68766;DHT22;55756;45.582;11.484;2023-04-07T02:13:20;10.90;47.80
68766;DHT22;55756;45.582;11.484;2023-04-07T02:15:48;11.00;47.80
68766;DHT22;55756;45.582;11.484;2023-04-07T02:18:19;11.00;47.60
68766;DHT22;55756;45.582;11.484;2023-04-07T02:20:46;11.00;47.70
68766;DHT22;55756;45.582;11.484;2023-04-07T02:23:12;11.10;47.60
68766;DHT22;55756;45.582;11.484;2023-04-07T02:25:38;11.10;47.10
68766;DHT22;55756;45.582;11.484;2023-04-07T02:28:04;11.10;46.70
68766;DHT22;55756;45.582;11.484;2023-04-07T02:30:32;11.00;46.70
68766;DHT22;55756;45.582;11.484;2023-04-07T02:32:58;11.10;46.70
68766;DHT22;55756;45.582;11.484;2023-04-07T02:35:23;11.10;46.60
68766;DHT22;55756;45.582;11.484;2023-04-07T02:37:49;11.00;46.70
68766;DHT22;55756;45.582;11.484;2023-04-07T02:40:15;11.00;46.70
68766;DHT22;55756;45.582;11.484;2023-04-07T02:42:41;11.00;46.90
68766;DHT22;55756;45.582;11.484;2023-04-07T02:45:08;11.00;46.80
68766;DHT22;55756;45.582;11.484;2023-04-07T02:47:36;11.00;46.60
68766;DHT22;55756;45.582;11.484;2023-04-07T02:50:03;11.00;46.60
68766;DHT22;55756;45.582;11.484;2023-04-07T02:52:29;11.00;46.60
68766;DHT22;55756;45.582;11.484;2023-04-07T02:54:55;11.00;46.70
68766;DHT22;55756;45.582;11.484;2023-04-07T02:57:24;11.00;46.70
68766;DHT22;55756;45.582;11.484;2023-04-07T02:59:54;11.00;46.80
68766;DHT22;55756;45.582;11.484;2023-04-07T03:02:23;10.90;47.00
68766;DHT22;55756;45.582;11.484;2023-04-07T03:04:52;10.80;47.30
68766;DHT22;55756;45.582;11.484;2023-04-07T03:07:20;10.90;47.50
68766;DHT22;55756;45.582;11.484;2023-04-07T03:09:48;10.90;47.50
68766;DHT22;55756;45.582;11.484;2023-04-07T03:12:16;10.80;47.50
68766;DHT22;55756;45.582;11.484;2023-04-07T03:14:42;10.90;47.40
68766;DHT22;55756;45.582;11.484;2023-04-07T03:17:08;10.90;47.50
68766;DHT22;55756;45.582;11.484;2023-04-07T03:19:34;10.90;47.30
68766;DHT22;55756;45.582;11.484;2023-04-07T03:22:00;10.90;47.40
68766;DHT22;55756;45.582;11.484;2023-04-07T03:24:26;10.80;47.50
68766;DHT22;55756;45.582;11.484;2023-04-07T03:26:52;10.80;47.90
68766;DHT22;55756;45.582;11.484;2023-04-07T03:29:34;10.70;47.70
68766;DHT22;55756;45.582;11.484;2023-04-07T03:32:02;10.70;47.80
68766;DHT22;55756;45.582;11.484;2023-04-07T03:34:28;10.70;47.70
68766;DHT22;55756;45.582;11.484;2023-04-07T03:36:56;10.80;47.70
68766;DHT22;55756;45.582;11.484;2023-04-07T03:39:22;10.80;47.80
68766;DHT22;55756;45.582;11.484;2023-04-07T03:41:49;10.80;47.80
68766;DHT22;55756;45.582;11.484;2023-04-07T03:44:17;10.80;47.80
68766;DHT22;55756;45.582;11.484;2023-04-07T03:46:42;10.70;48.30
68766;DHT22;55756;45.582;11.484;2023-04-07T03:49:10;10.70;48.30
68766;DHT22;55756;45.582;11.484;2023-04-07T03:51:36;10.70;48.40
68766;DHT22;55756;45.582;11.484;2023-04-07T03:54:07;10.70;48.30
68766;DHT22;55756;45.582;11.484;2023-04-07T03:56:38;10.70;48.40
68766;DHT22;55756;45.582;11.484;2023-04-07T03:59:04;10.70;48.20
68766;DHT22;55756;45.582;11.484;2023-04-07T04:01:35;10.70;48.10
68766;DHT22;55756;45.582;11.484;2023-04-07T04:04:09;10.70;48.30
68766;DHT22;55756;45.582;11.484;2023-04-07T04:06:35;10.70;48.20
68766;DHT22;55756;45.582;11.484;2023-04-07T04:09:24;10.70;48.20
68766;DHT22;55756;45.582;11.484;2023-04-07T04:11:50;10.60;48.20
68766;DHT22;55756;45.582;11.484;2023-04-07T04:14:17;10.70;48.40
68766;DHT22;55756;45.582;11.484;2023-04-07T04:16:49;10.70;48.40
68766;DHT22;55756;45.582;11.484;2023-04-07T04:19:50;10.70;48.30
68766;DHT22;55756;45.582;11.484;2023-04-07T04:22:39;10.60;48.30
68766;DHT22;55756;45.582;11.484;2023-04-07T04:25:05;10.60;48.40
68766;DHT22;55756;45.582;11.484;2023-04-07T04:27:31;10.60;48.50
68766;DHT22;55756;45.582;11.484;2023-04-07T04:30:14;10.60;48.50
68766;DHT22;55756;45.582;11.484;2023-04-07T04:32:48;10.50;48.30
68766;DHT22;55756;45.582;11.484;2023-04-07T04:35:16;10.40;48.50
68766;DHT22;55756;45.582;11.484;2023-04-07T04:37:52;10.40;48.60
68766;DHT22;55756;45.582;11.484;2023-04-07T04:40:18;10.40;48.70
68766;DHT22;55756;45.582;11.484;2023-04-07T04:42:46;10.40;48.70
68766;DHT22;55756;45.582;11.484;2023-04-07T04:45:13;10.30;48.70
68766;DHT22;55756;45.582;11.484;2023-04-07T04:47:44;10.30;48.80
68766;DHT22;55756;45.582;11.484;2023-04-07T04:50:10;10.30;48.80
68766;DHT22;55756;45.582;11.484;2023-04-07T04:52:37;10.30;48.90
68766;DHT22;55756;45.582;11.484;2023-04-07T04:55:06;10.30;48.70
68766;DHT22;55756;45.582;11.484;2023-04-07T04:57:32;10.20;48.80
68766;DHT22;55756;45.582;11.484;2023-04-07T05:00:02;10.20;48.80
68766;DHT22;55756;45.582;11.484;2023-04-07T05:02:29;10.20;48.60
68766;DHT22;55756;45.582;11.484;2023-04-07T05:04:55;10.20;48.40
68766;DHT22;55756;45.582;11.484;2023-04-07T05:07:25;10.20;48.80
68766;DHT22;55756;45.582;11.484;2023-04-07T05:09:51;10.20;49.00
68766;DHT22;55756;45.582;11.484;2023-04-07T05:12:19;10.20;48.90
68766;DHT22;55756;45.582;11.484;2023-04-07T05:14:49;10.10;49.10
68766;DHT22;55756;45.582;11.484;2023-04-07T05:17:15;10.10;49.30
68766;DHT22;55756;45.582;11.484;2023-04-07T05:19:41;10.20;49.30
68766;DHT22;55756;45.582;11.484;2023-04-07T05:22:16;10.10;49.80
68766;DHT22;55756;45.582;11.484;2023-04-07T05:24:45;10.10;50.10
68766;DHT22;55756;45.582;11.484;2023-04-07T05:27:11;10.10;50.10
68766;DHT22;55756;45.582;11.484;2023-04-07T05:29:38;10.10;50.00
68766;DHT22;55756;45.582;11.484;2023-04-07T05:32:07;10.20;50.20
68766;DHT22;55756;45.582;11.484;2023-04-07T05:34:33;10.20;50.20
68766;DHT22;55756;45.582;11.484;2023-04-07T05:36:58;10.10;50.40
68766;DHT22;55756;45.582;11.484;2023-04-07T05:39:24;10.20;50.30
68766;DHT22;55756;45.582;11.484;2023-04-07T05:41:54;10.20;50.50
68766;DHT22;55756;45.582;11.484;2023-04-07T05:44:24;10.20;51.50
68766;DHT22;55756;45.582;11.484;2023-04-07T05:46:50;10.20;51.50
68766;DHT22;55756;45.582;11.484;2023-04-07T05:49:18;10.20;51.30
68766;DHT22;55756;45.582;11.484;2023-04-07T05:51:47;10.30;51.10
68766;DHT22;55756;45.582;11.484;2023-04-07T05:54:13;10.30;51.30
68766;DHT22;55756;45.582;11.484;2023-04-07T05:56:40;10.20;51.70
68766;DHT22;55756;45.582;11.484;2023-04-07T05:59:06;10.30;51.50
68766;DHT22;55756;45.582;11.484;2023-04-07T06:01:32;10.30;51.80
68766;DHT22;55756;45.582;11.484;2023-04-07T06:03:57;10.30;51.70
68766;DHT22;55756;45.582;11.484;2023-04-07T06:06:25;10.40;51.50
68766;DHT22;55756;45.582;11.484;2023-04-07T06:08:52;10.40;51.30
68766;DHT22;55756;45.582;11.484;2023-04-07T06:11:18;10.60;51.00
68766;DHT22;55756;45.582;11.484;2023-04-07T06:13:44;10.60;51.10
68766;DHT22;55756;45.582;11.484;2023-04-07T06:16:10;10.70;51.10
68766;DHT22;55756;45.582;11.484;2023-04-07T06:18:36;10.70;50.80
68766;DHT22;55756;45.582;11.484;2023-04-07T06:21:05;10.80;50.90
68766;DHT22;55756;45.582;11.484;2023-04-07T06:23:31;10.90;51.10
68766;DHT22;55756;45.582;11.484;2023-04-07T06:25:57;10.90;51.20
68766;DHT22;55756;45.582;11.484;2023-04-07T06:28:22;11.00;51.40
68766;DHT22;55756;45.582;11.484;2023-04-07T06:30:48;11.00;51.50
68766;DHT22;55756;45.582;11.484;2023-04-07T06:33:15;11.00;50.80
68766;DHT22;55756;45.582;11.484;2023-04-07T06:35:42;11.00;50.70
68766;DHT22;55756;45.582;11.484;2023-04-07T06:38:07;11.10;50.60
68766;DHT22;55756;45.582;11.484;2023-04-07T06:40:35;11.00;51.10
68766;DHT22;55756;45.582;11.484;2023-04-07T06:43:01;11.10;51.10
68766;DHT22;55756;45.582;11.484;2023-04-07T06:45:42;11.10;51.40
68766;DHT22;55756;45.582;11.484;2023-04-07T06:48:08;11.20;51.70
68766;DHT22;55756;45.582;11.484;2023-04-07T06:50:36;11.30;52.00
68766;DHT22;55756;45.582;11.484;2023-04-07T06:53:03;11.30;52.10
68766;DHT22;55756;45.582;11.484;2023-04-07T06:55:29;11.40;52.30
68766;DHT22;55756;45.582;11.484;2023-04-07T06:57:54;11.50;51.90
68766;DHT22;55756;45.582;11.484;2023-04-07T07:00:21;11.50;52.10
68766;DHT22;55756;45.582;11.484;2023-04-07T07:02:48;11.60;52.30
68766;DHT22;55756;45.582;11.484;2023-04-07T07:05:14;11.60;52.20
68766;DHT22;55756;45.582;11.484;2023-04-07T07:07:40;11.60;51.90
68766;DHT22;55756;45.582;11.484;2023-04-07T07:10:08;11.70;51.90
68766;DHT22;55756;45.582;11.484;2023-04-07T07:12:34;11.80;52.30
68766;DHT22;55756;45.582;11.484;2023-04-07T07:14:59;11.80;52.90
68766;DHT22;55756;45.582;11.484;2023-04-07T07:17:25;11.90;52.80
68766;DHT22;55756;45.582;11.484;2023-04-07T07:19:51;12.00;53.20
68766;DHT22;55756;45.582;11.484;2023-04-07T07:22:17;12.00;52.80
68766;DHT22;55756;45.582;11.484;2023-04-07T07:24:42;12.10;52.60
68766;DHT22;55756;45.582;11.484;2023-04-07T07:27:08;12.20;52.10
68766;DHT22;55756;45.582;11.484;2023-04-07T07:29:34;12.30;51.20
68766;DHT22;55756;45.582;11.484;2023-04-07T07:32:00;12.30;49.90
68766;DHT22;55756;45.582;11.484;2023-04-07T07:34:25;12.40;49.50
68766;DHT22;55756;45.582;11.484;2023-04-07T07:36:51;12.50;49.30
68766;DHT22;55756;45.582;11.484;2023-04-07T07:39:17;12.50;49.30
68766;DHT22;55756;45.582;11.484;2023-04-07T07:41:42;12.70;49.10
68766;DHT22;55756;45.582;11.484;2023-04-07T07:44:08;12.80;48.80
68766;DHT22;55756;45.582;11.484;2023-04-07T07:46:34;12.80;47.80
68766;DHT22;55756;45.582;11.484;2023-04-07T07:49:00;12.90;48.10
68766;DHT22;55756;45.582;11.484;2023-04-07T07:51:25;12.90;47.30
68766;DHT22;55756;45.582;11.484;2023-04-07T07:53:52;13.00;47.40
68766;DHT22;55756;45.582;11.484;2023-04-07T07:56:18;13.10;47.40
68766;DHT22;55756;45.582;11.484;2023-04-07T07:58:44;13.10;46.60
68766;DHT22;55756;45.582;11.484;2023-04-07T08:01:09;13.10;46.50
68766;DHT22;55756;45.582;11.484;2023-04-07T08:03:35;13.20;47.00
68766;DHT22;55756;45.582;11.484;2023-04-07T08:06:01;13.20;46.80
68766;DHT22;55756;45.582;11.484;2023-04-07T08:08:27;13.20;46.60
68766;DHT22;55756;45.582;11.484;2023-04-07T08:10:53;13.20;46.90
68766;DHT22;55756;45.582;11.484;2023-04-07T08:13:19;13.30;47.30
68766;DHT22;55756;45.582;11.484;2023-04-07T08:15:45;13.30;47.10
68766;DHT22;55756;45.582;11.484;2023-04-07T08:18:10;13.30;47.20
68766;DHT22;55756;45.582;11.484;2023-04-07T08:20:36;13.30;47.70
68766;DHT22;55756;45.582;11.484;2023-04-07T08:23:02;13.40;47.50
68766;DHT22;55756;45.582;11.484;2023-04-07T08:25:28;13.50;47.00
68766;DHT22;55756;45.582;11.484;2023-04-07T08:27:54;13.50;46.60
68766;DHT22;55756;45.582;11.484;2023-04-07T08:30:20;13.50;46.40
68766;DHT22;55756;45.582;11.484;2023-04-07T08:32:46;13.50;46.60
68766;DHT22;55756;45.582;11.484;2023-04-07T08:35:12;13.50;46.80
68766;DHT22;55756;45.582;11.484;2023-04-07T08:37:39;13.50;47.10
68766;DHT22;55756;45.582;11.484;2023-04-07T08:40:05;13.50;47.00
68766;DHT22;55756;45.582;11.484;2023-04-07T08:42:33;13.50;46.90
68766;DHT22;55756;45.582;11.484;2023-04-07T08:45:04;13.50;47.00
68766;DHT22;55756;45.582;11.484;2023-04-07T08:47:32;13.60;46.60
68766;DHT22;55756;45.582;11.484;2023-04-07T08:50:05;13.70;46.70
68766;DHT22;55756;45.582;11.484;2023-04-07T08:55:03;13.70;46.80
68766;DHT22;55756;45.582;11.484;2023-04-07T08:57:32;13.70;46.70
68766;DHT22;55756;45.582;11.484;2023-04-07T08:59:59;13.70;45.90
68766;DHT22;55756;45.582;11.484;2023-04-07T09:02:38;13.80;46.80
68766;DHT22;55756;45.582;11.484;2023-04-07T09:05:06;13.80;46.50
68766;DHT22;55756;45.582;11.484;2023-04-07T09:07:35;13.90;46.40
68766;DHT22;55756;45.582;11.484;2023-04-07T09:10:01;13.90;46.20
68766;DHT22;55756;45.582;11.484;2023-04-07T09:12:28;13.80;46.30
68766;DHT22;55756;45.582;11.484;2023-04-07T09:14:54;13.90;46.10
68766;DHT22;55756;45.582;11.484;2023-04-07T09:17:20;14.00;46.60
68766;DHT22;55756;45.582;11.484;2023-04-07T09:19:47;14.00;46.60
68766;DHT22;55756;45.582;11.484;2023-04-07T09:22:13;14.10;46.30
68766;DHT22;55756;45.582;11.484;2023-04-07T09:24:40;14.10;45.00
68766;DHT22;55756;45.582;11.484;2023-04-07T09:27:10;14.10;45.60
68766;DHT22;55756;45.582;11.484;2023-04-07T09:29:36;14.10;46.00
68766;DHT22;55756;45.582;11.484;2023-04-07T09:32:02;14.20;45.00
68766;DHT22;55756;45.582;11.484;2023-04-07T09:34:46;14.30;45.50
68766;DHT22;55756;45.582;11.484;2023-04-07T09:37:23;14.30;45.60
68766;DHT22;55756;45.582;11.484;2023-04-07T09:39:50;14.30;45.30
68766;DHT22;55756;45.582;11.484;2023-04-07T09:42:17;14.40;45.00
68766;DHT22;55756;45.582;11.484;2023-04-07T09:44:43;14.40;45.10
68766;DHT22;55756;45.582;11.484;2023-04-07T09:47:09;14.50;43.80
68766;DHT22;55756;45.582;11.484;2023-04-07T09:49:49;14.50;44.20
68766;DHT22;55756;45.582;11.484;2023-04-07T09:52:17;14.60;43.60
68766;DHT22;55756;45.582;11.484;2023-04-07T09:54:45;14.60;43.20
68766;DHT22;55756;45.582;11.484;2023-04-07T09:57:11;14.60;43.30
68766;DHT22;55756;45.582;11.484;2023-04-07T09:59:39;14.70;43.50
68766;DHT22;55756;45.582;11.484;2023-04-07T10:02:07;14.70;43.50
68766;DHT22;55756;45.582;11.484;2023-04-07T10:04:33;14.70;43.40
68766;DHT22;55756;45.582;11.484;2023-04-07T10:06:59;14.70;43.90
68766;DHT22;55756;45.582;11.484;2023-04-07T10:09:29;14.80;44.30
68766;DHT22;55756;45.582;11.484;2023-04-07T10:11:56;14.90;44.50
68766;DHT22;55756;45.582;11.484;2023-04-07T10:14:31;14.90;44.70
68766;DHT22;55756;45.582;11.484;2023-04-07T10:17:00;14.90;44.90
68766;DHT22;55756;45.582;11.484;2023-04-07T10:19:31;15.00;44.40
68766;DHT22;55756;45.582;11.484;2023-04-07T10:21:58;15.10;44.20
68766;DHT22;55756;45.582;11.484;2023-04-07T10:24:59;15.10;43.60
68766;DHT22;55756;45.582;11.484;2023-04-07T10:27:34;15.10;43.30
68766;DHT22;55756;45.582;11.484;2023-04-07T10:30:02;15.10;44.20
68766;DHT22;55756;45.582;11.484;2023-04-07T10:32:29;15.20;44.40
68766;DHT22;55756;45.582;11.484;2023-04-07T10:34:57;15.30;44.30
68766;DHT22;55756;45.582;11.484;2023-04-07T10:37:24;15.30;44.20
68766;DHT22;55756;45.582;11.484;2023-04-07T10:42:45;15.30;43.90
68766;DHT22;55756;45.582;11.484;2023-04-07T10:45:14;15.40;42.80
68766;DHT22;55756;45.582;11.484;2023-04-07T10:50:27;15.40;42.70
68766;DHT22;55756;45.582;11.484;2023-04-07T10:53:13;15.40;42.90
68766;DHT22;55756;45.582;11.484;2023-04-07T10:55:43;15.40;43.00
68766;DHT22;55756;45.582;11.484;2023-04-07T11:00:38;15.40;41.40
68766;DHT22;55756;45.582;11.484;2023-04-07T11:03:10;15.40;41.40
68766;DHT22;55756;45.582;11.484;2023-04-07T11:05:40;15.40;41.50
68766;DHT22;55756;45.582;11.484;2023-04-07T11:08:06;15.50;41.70
68766;DHT22;55756;45.582;11.484;2023-04-07T11:10:35;15.50;41.40
68766;DHT22;55756;45.582;11.484;2023-04-07T11:13:05;15.50;41.60
68766;DHT22;55756;45.582;11.484;2023-04-07T11:15:32;15.50;41.30
68766;DHT22;55756;45.582;11.484;2023-04-07T11:18:12;15.50;41.20
68766;DHT22;55756;45.582;11.484;2023-04-07T11:20:52;15.50;40.90
68766;DHT22;55756;45.582;11.484;2023-04-07T11:23:20;15.50;40.90
68766;DHT22;55756;45.582;11.484;2023-04-07T11:25:48;15.60;41.10
68766;DHT22;55756;45.582;11.484;2023-04-07T11:28:15;15.60;40.90
68766;DHT22;55756;45.582;11.484;2023-04-07T11:30:49;15.60;40.90
68766;DHT22;55756;45.582;11.484;2023-04-07T11:33:21;15.70;40.60
68766;DHT22;55756;45.582;11.484;2023-04-07T11:35:52;15.70;40.30
68766;DHT22;55756;45.582;11.484;2023-04-07T11:38:18;15.70;39.90
68766;DHT22;55756;45.582;11.484;2023-04-07T11:40:45;15.80;39.60
68766;DHT22;55756;45.582;11.484;2023-04-07T11:43:22;15.80;39.50
68766;DHT22;55756;45.582;11.484;2023-04-07T11:46:13;15.80;39.90
68766;DHT22;55756;45.582;11.484;2023-04-07T11:48:41;15.80;39.60
68766;DHT22;55756;45.582;11.484;2023-04-07T11:51:15;15.80;39.40
68766;DHT22;55756;45.582;11.484;2023-04-07T11:53:41;15.80;39.20
68766;DHT22;55756;45.582;11.484;2023-04-07T11:56:09;15.90;39.70
68766;DHT22;55756;45.582;11.484;2023-04-07T11:58:36;15.90;39.80
68766;DHT22;55756;45.582;11.484;2023-04-07T12:01:05;15.90;39.90
68766;DHT22;55756;45.582;11.484;2023-04-07T12:03:34;15.90;40.60
68766;DHT22;55756;45.582;11.484;2023-04-07T12:06:03;16.00;40.80
68766;DHT22;55756;45.582;11.484;2023-04-07T12:08:40;16.00;40.40
68766;DHT22;55756;45.582;11.484;2023-04-07T12:11:06;16.10;40.00
68766;DHT22;55756;45.582;11.484;2023-04-07T12:13:33;16.00;40.00
68766;DHT22;55756;45.582;11.484;2023-04-07T12:15:59;16.00;39.80
68766;DHT22;55756;45.582;11.484;2023-04-07T12:18:25;16.00;39.80
68766;DHT22;55756;45.582;11.484;2023-04-07T12:20:51;16.00;39.60
68766;DHT22;55756;45.582;11.484;2023-04-07T12:23:17;16.00;39.50
68766;DHT22;55756;45.582;11.484;2023-04-07T12:25:42;16.10;39.20
68766;DHT22;55756;45.582;11.484;2023-04-07T12:28:08;16.10;39.40
68766;DHT22;55756;45.582;11.484;2023-04-07T12:30:35;16.10;39.80
68766;DHT22;55756;45.582;11.484;2023-04-07T12:33:01;16.20;39.50
68766;DHT22;55756;45.582;11.484;2023-04-07T12:35:28;16.20;39.30
68766;DHT22;55756;45.582;11.484;2023-04-07T12:37:55;16.20;38.90
68766;DHT22;55756;45.582;11.484;2023-04-07T12:40:22;16.30;38.50
68766;DHT22;55756;45.582;11.484;2023-04-07T12:42:47;16.30;38.20
68766;DHT22;55756;45.582;11.484;2023-04-07T12:45:13;16.30;38.30
68766;DHT22;55756;45.582;11.484;2023-04-07T12:47:39;16.30;38.00
68766;DHT22;55756;45.582;11.484;2023-04-07T12:50:05;16.40;37.90
68766;DHT22;55756;45.582;11.484;2023-04-07T12:52:31;16.40;37.60
68766;DHT22;55756;45.582;11.484;2023-04-07T12:54:57;16.40;37.90
68766;DHT22;55756;45.582;11.484;2023-04-07T12:57:24;16.40;38.60
68766;DHT22;55756;45.582;11.484;2023-04-07T12:59:50;16.40;38.20
68766;DHT22;55756;45.582;11.484;2023-04-07T13:02:16;16.40;37.90
68766;DHT22;55756;45.582;11.484;2023-04-07T13:04:43;16.40;38.20
68766;DHT22;55756;45.582;11.484;2023-04-07T13:07:12;16.40;38.20
68766;DHT22;55756;45.582;11.484;2023-04-07T13:09:38;16.40;38.20
68766;DHT22;55756;45.582;11.484;2023-04-07T13:12:05;16.50;37.80
68766;DHT22;55756;45.582;11.484;2023-04-07T13:14:31;16.50;37.70
68766;DHT22;55756;45.582;11.484;2023-04-07T13:16:57;16.60;38.00
68766;DHT22;55756;45.582;11.484;2023-04-07T13:19:22;16.60;37.80
68766;DHT22;55756;45.582;11.484;2023-04-07T13:21:48;16.60;37.30
68766;DHT22;55756;45.582;11.484;2023-04-07T13:24:14;16.60;37.10
68766;DHT22;55756;45.582;11.484;2023-04-07T13:26:40;16.60;37.20
68766;DHT22;55756;45.582;11.484;2023-04-07T13:29:06;16.70;36.90
68766;DHT22;55756;45.582;11.484;2023-04-07T13:31:31;16.70;36.80
68766;DHT22;55756;45.582;11.484;2023-04-07T13:33:57;16.70;36.90
68766;DHT22;55756;45.582;11.484;2023-04-07T13:36:24;16.70;37.40
68766;DHT22;55756;45.582;11.484;2023-04-07T13:38:50;16.70;37.50
68766;DHT22;55756;45.582;11.484;2023-04-07T13:41:16;16.70;37.60
68766;DHT22;55756;45.582;11.484;2023-04-07T13:43:42;16.70;37.40
68766;DHT22;55756;45.582;11.484;2023-04-07T13:46:07;16.70;37.20
68766;DHT22;55756;45.582;11.484;2023-04-07T13:48:38;16.80;36.90
68766;DHT22;55756;45.582;11.484;2023-04-07T13:51:04;16.80;36.70
68766;DHT22;55756;45.582;11.484;2023-04-07T13:53:30;16.80;36.80
68766;DHT22;55756;45.582;11.484;2023-04-07T13:55:56;16.80;37.10
68766;DHT22;55756;45.582;11.484;2023-04-07T13:58:21;16.80;37.30
68766;DHT22;55756;45.582;11.484;2023-04-07T14:00:47;16.80;37.10
68766;DHT22;55756;45.582;11.484;2023-04-07T14:03:13;16.80;36.70
68766;DHT22;55756;45.582;11.484;2023-04-07T14:05:39;16.80;36.40
68766;DHT22;55756;45.582;11.484;2023-04-07T14:08:05;16.80;36.20
68766;DHT22;55756;45.582;11.484;2023-04-07T14:10:31;16.80;36.00
68766;DHT22;55756;45.582;11.484;2023-04-07T14:12:58;16.80;36.10
68766;DHT22;55756;45.582;11.484;2023-04-07T14:15:24;16.80;36.00
68766;DHT22;55756;45.582;11.484;2023-04-07T14:17:53;16.80;36.10
68766;DHT22;55756;45.582;11.484;2023-04-07T14:20:19;16.80;36.10
68766;DHT22;55756;45.582;11.484;2023-04-07T14:22:45;16.80;35.80
68766;DHT22;55756;45.582;11.484;2023-04-07T14:25:10;16.80;35.50
68766;DHT22;55756;45.582;11.484;2023-04-07T14:27:36;16.80;35.60
68766;DHT22;55756;45.582;11.484;2023-04-07T14:30:02;16.80;35.40
68766;DHT22;55756;45.582;11.484;2023-04-07T14:32:28;16.80;35.50
68766;DHT22;55756;45.582;11.484;2023-04-07T14:34:54;16.80;35.30
68766;DHT22;55756;45.582;11.484;2023-04-07T14:37:20;16.80;35.70
68766;DHT22;55756;45.582;11.484;2023-04-07T14:39:51;16.70;35.60
68766;DHT22;55756;45.582;11.484;2023-04-07T14:42:18;16.80;35.70
68766;DHT22;55756;45.582;11.484;2023-04-07T14:44:43;16.80;35.70
68766;DHT22;55756;45.582;11.484;2023-04-07T14:47:09;16.80;35.90
68766;DHT22;55756;45.582;11.484;2023-04-07T14:49:36;16.80;35.60
68766;DHT22;55756;45.582;11.484;2023-04-07T14:52:02;16.80;35.50
68766;DHT22;55756;45.582;11.484;2023-04-07T14:54:28;16.80;35.30
68766;DHT22;55756;45.582;11.484;2023-04-07T14:56:54;16.80;35.50
68766;DHT22;55756;45.582;11.484;2023-04-07T14:59:20;16.70;35.50
68766;DHT22;55756;45.582;11.484;2023-04-07T15:01:46;16.70;35.40
68766;DHT22;55756;45.582;11.484;2023-04-07T15:04:11;16.70;34.80
68766;DHT22;55756;45.582;11.484;2023-04-07T15:06:40;16.70;34.90
68766;DHT22;55756;45.582;11.484;2023-04-07T15:09:07;16.70;34.80
68766;DHT22;55756;45.582;11.484;2023-04-07T15:11:33;16.70;34.90
68766;DHT22;55756;45.582;11.484;2023-04-07T15:13:59;16.80;35.00
68766;DHT22;55756;45.582;11.484;2023-04-07T15:16:28;16.70;34.80
68766;DHT22;55756;45.582;11.484;2023-04-07T15:18:54;16.70;34.90
68766;DHT22;55756;45.582;11.484;2023-04-07T15:21:20;16.70;34.70
68766;DHT22;55756;45.582;11.484;2023-04-07T15:23:46;16.70;34.80
68766;DHT22;55756;45.582;11.484;2023-04-07T15:26:12;16.70;34.70
68766;DHT22;55756;45.582;11.484;2023-04-07T15:28:38;16.70;34.40
68766;DHT22;55756;45.582;11.484;2023-04-07T15:31:04;16.70;34.30
68766;DHT22;55756;45.582;11.484;2023-04-07T15:33:37;16.70;34.70
68766;DHT22;55756;45.582;11.484;2023-04-07T15:36:05;16.70;34.80
68766;DHT22;55756;45.582;11.484;2023-04-07T15:38:31;16.70;34.80